sensor_id;sensor_type;location;lat;lon;timestamp;pressure;altitude;pressure_sealevel;temperature;humidity
83625;BME280;73589;41.158;-73.238;2024-03-23T00:54:49;102541.80;;;22.85;32.38
83625;BME280;73589;41.158;-73.238;2024-03-23T00:57:21;102534.28;;;22.85;32.13
83625;BME280;73589;41.158;-73.238;2024-03-23T00:59:51;102524.15;;;22.88;31.85
83625;BME280;73589;41.158;-73.238;2024-03-23T01:02:20;102527.81;;;22.80;31.77
83625;BME280;73589;41.158;-73.238;2024-03-23T01:04:52;102535.17;;;22.80;31.65
83625;BME280;73589;41.158;-73.238;2024-03-23T01:07:22;102528.91;;;22.83;31.50
83625;BME280;73589;41.158;-73.238;2024-03-23T01:09:52;102524.46;;;22.78;31.45
83625;BME280;73589;41.158;-73.238;2024-03-23T01:12:23;102532.84;;;22.81;31.36
83625;BME280;73589;41.158;-73.238;2024-03-23T01:14:53;102531.69;;;22.79;31.34
83625;BME280;73589;41.158;-73.238;2024-03-23T01:17:23;102527.59;;;22.83;31.21
83625;BME280;73589;41.158;-73.238;2024-03-23T01:19:54;102531.12;;;22.65;30.28
83625;BME280;73589;41.158;-73.238;2024-03-23T01:22:24;102531.00;;;22.21;30.69
83625;BME280;73589;41.158;-73.238;2024-03-23T01:24:54;102531.10;;;22.39;30.21
83625;BME280;73589;41.158;-73.238;2024-03-23T01:27:25;102529.91;;;22.48;30.25
83625;BME280;73589;41.158;-73.238;2024-03-23T01:29:55;102536.01;;;22.55;30.33
83625;BME280;73589;41.158;-73.238;2024-03-23T01:32:27;102536.53;;;22.58;30.38
83625;BME280;73589;41.158;-73.238;2024-03-23T01:34:56;102531.56;;;22.63;30.29
83625;BME280;73589;41.158;-73.238;2024-03-23T01:37:27;102533.43;;;22.56;30.30
83625;BME280;73589;41.158;-73.238;2024-03-23T01:39:57;102532.53;;;22.64;30.35
83625;BME280;73589;41.158;-73.238;2024-03-23T01:42:27;102534.55;;;22.69;30.41
83625;BME280;73589;41.158;-73.238;2024-03-23T01:44:58;102527.97;;;22.72;30.50
83625;BME280;73589;41.158;-73.238;2024-03-23T01:47:28;102525.22;;;22.81;30.89
83625;BME280;73589;41.158;-73.238;2024-03-23T01:49:59;102523.86;;;22.81;31.14
83625;BME280;73589;41.158;-73.238;2024-03-23T01:52:30;102515.14;;;22.84;31.07
83625;BME280;73589;41.158;-73.238;2024-03-23T01:55:01;102506.21;;;22.75;30.91
83625;BME280;73589;41.158;-73.238;2024-03-23T01:57:31;102507.08;;;22.75;30.52
83625;BME280;73589;41.158;-73.238;2024-03-23T02:00:02;102510.36;;;22.60;30.48
83625;BME280;73589;41.158;-73.238;2024-03-23T02:02:40;102505.04;;;22.51;30.28
83625;BME280;73589;41.158;-73.238;2024-03-23T02:05:02;102514.51;;;22.55;29.84
83625;BME280;73589;41.158;-73.238;2024-03-23T02:07:33;102514.66;;;22.44;29.70
83625;BME280;73589;41.158;-73.238;2024-03-23T02:10:05;102502.59;;;22.48;29.83
83625;BME280;73589;41.158;-73.238;2024-03-23T02:12:34;102485.50;;;22.45;30.02
83625;BME280;73589;41.158;-73.238;2024-03-23T02:15:05;102469.86;;;22.54;29.88
83625;BME280;73589;41.158;-73.238;2024-03-23T02:17:36;102475.35;;;22.48;30.01
83625;BME280;73589;41.158;-73.238;2024-03-23T02:20:06;102463.35;;;22.42;30.09
83625;BME280;73589;41.158;-73.238;2024-03-23T02:22:37;102443.59;;;22.46;29.91
83625;BME280;73589;41.158;-73.238;2024-03-23T02:25:08;102429.45;;;22.33;29.35
83625;BME280;73589;41.158;-73.238;2024-03-23T02:27:38;102430.22;;;22.33;29.30
83625;BME280;73589;41.158;-73.238;2024-03-23T02:30:09;102437.07;;;22.21;29.09
83625;BME280;73589;41.158;-73.238;2024-03-23T02:32:39;102440.83;;;22.19;29.07
83625;BME280;73589;41.158;-73.238;2024-03-23T02:35:09;102443.37;;;22.25;29.18
83625;BME280;73589;41.158;-73.238;2024-03-23T02:37:40;102446.23;;;22.20;29.37
83625;BME280;73589;41.158;-73.238;2024-03-23T02:40:10;102446.69;;;22.27;29.36
83625;BME280;73589;41.158;-73.238;2024-03-23T02:42:40;102453.17;;;22.30;29.31
83625;BME280;73589;41.158;-73.238;2024-03-23T02:45:12;102463.43;;;22.28;29.24
83625;BME280;73589;41.158;-73.238;2024-03-23T02:47:41;102462.70;;;22.12;29.36
83625;BME280;73589;41.158;-73.238;2024-03-23T02:50:13;102447.33;;;22.05;29.75
83625;BME280;73589;41.158;-73.238;2024-03-23T02:52:43;102448.90;;;21.83;31.29
83625;BME280;73589;41.158;-73.238;2024-03-23T02:55:13;102452.71;;;22.06;31.68
83625;BME280;73589;41.158;-73.238;2024-03-23T02:57:45;102458.64;;;22.04;32.27
83625;BME280;73589;41.158;-73.238;2024-03-23T03:00:15;102464.49;;;22.29;32.21
83625;BME280;73589;41.158;-73.238;2024-03-23T03:02:49;102471.14;;;22.36;32.20
83625;BME280;73589;41.158;-73.238;2024-03-23T03:05:16;102462.44;;;22.39;32.29
83625;BME280;73589;41.158;-73.238;2024-03-23T03:07:45;102450.52;;;22.50;32.40
83625;BME280;73589;41.158;-73.238;2024-03-23T03:10:15;102450.58;;;22.47;32.47
83625;BME280;73589;41.158;-73.238;2024-03-23T03:12:47;102445.97;;;22.12;32.88
83625;BME280;73589;41.158;-73.238;2024-03-23T03:15:17;102439.08;;;22.07;33.43
83625;BME280;73589;41.158;-73.238;2024-03-23T03:17:48;102457.21;;;22.30;33.26
83625;BME280;73589;41.158;-73.238;2024-03-23T03:20:18;102462.95;;;22.36;33.46
83625;BME280;73589;41.158;-73.238;2024-03-23T03:22:49;102457.08;;;22.50;33.25
83625;BME280;73589;41.158;-73.238;2024-03-23T03:25:19;102432.28;;;22.60;33.18
83625;BME280;73589;41.158;-73.238;2024-03-23T03:27:50;102444.19;;;22.59;33.29
83625;BME280;73589;41.158;-73.238;2024-03-23T03:30:21;102443.87;;;22.59;33.34
83625;BME280;73589;41.158;-73.238;2024-03-23T03:32:53;102449.44;;;22.59;33.45
83625;BME280;73589;41.158;-73.238;2024-03-23T03:35:22;102450.23;;;22.22;33.88
83625;BME280;73589;41.158;-73.238;2024-03-23T03:37:53;102444.33;;;21.92;34.51
83625;BME280;73589;41.158;-73.238;2024-03-23T03:40:23;102445.21;;;22.48;33.99
83625;BME280;73589;41.158;-73.238;2024-03-23T03:42:54;102443.07;;;22.55;33.88
83625;BME280;73589;41.158;-73.238;2024-03-23T03:45:30;102435.87;;;22.60;33.72
83625;BME280;73589;41.158;-73.238;2024-03-23T03:47:55;102430.90;;;22.66;33.64
83625;BME280;73589;41.158;-73.238;2024-03-23T03:50:26;102424.24;;;22.66;33.57
83625;BME280;73589;41.158;-73.238;2024-03-23T03:52:57;102415.72;;;22.61;33.70
83625;BME280;73589;41.158;-73.238;2024-03-23T03:55:27;102403.04;;;22.14;34.08
83625;BME280;73589;41.158;-73.238;2024-03-23T03:57:58;102406.86;;;22.15;34.23
83625;BME280;73589;41.158;-73.238;2024-03-23T04:00:30;102420.23;;;22.29;34.20
83625;BME280;73589;41.158;-73.238;2024-03-23T04:02:59;102415.77;;;22.44;34.15
83625;BME280;73589;41.158;-73.238;2024-03-23T04:05:30;102410.33;;;22.50;34.02
83625;BME280;73589;41.158;-73.238;2024-03-23T04:08:00;102405.28;;;22.48;34.05
83625;BME280;73589;41.158;-73.238;2024-03-23T04:10:31;102397.55;;;22.47;34.06
83625;BME280;73589;41.158;-73.238;2024-03-23T04:13:02;102393.12;;;22.48;34.02
83625;BME280;73589;41.158;-73.238;2024-03-23T04:15:32;102385.04;;;22.19;34.12
83625;BME280;73589;41.158;-73.238;2024-03-23T04:18:03;102386.27;;;22.07;34.68
83625;BME280;73589;41.158;-73.238;2024-03-23T04:20:35;102391.83;;;22.41;34.26
83625;BME280;73589;41.158;-73.238;2024-03-23T04:23:04;102386.21;;;22.45;34.19
83625;BME280;73589;41.158;-73.238;2024-03-23T04:25:35;102378.06;;;22.39;34.26
83625;BME280;73589;41.158;-73.238;2024-03-23T04:28:06;102376.72;;;22.47;34.14
83625;BME280;73589;41.158;-73.238;2024-03-23T04:30:36;102363.69;;;22.36;34.13
83625;BME280;73589;41.158;-73.238;2024-03-23T04:33:07;102354.31;;;22.11;34.57
83625;BME280;73589;41.158;-73.238;2024-03-23T04:35:38;102353.32;;;22.26;34.55
83625;BME280;73589;41.158;-73.238;2024-03-23T04:38:09;102334.56;;;22.42;34.38
83625;BME280;73589;41.158;-73.238;2024-03-23T04:40:38;102324.41;;;22.47;34.24
83625;BME280;73589;41.158;-73.238;2024-03-23T04:43:10;102324.89;;;22.39;34.37
83625;BME280;73589;41.158;-73.238;2024-03-23T04:45:40;102324.31;;;22.45;34.25
83625;BME280;73589;41.158;-73.238;2024-03-23T04:48:11;102325.55;;;22.15;34.51
83625;BME280;73589;41.158;-73.238;2024-03-23T04:50:41;102312.25;;;21.97;34.91
83625;BME280;73589;41.158;-73.238;2024-03-23T04:53:11;102307.06;;;22.24;34.68
83625;BME280;73589;41.158;-73.238;2024-03-23T04:55:43;102304.28;;;22.33;34.64
83625;BME280;73589;41.158;-73.238;2024-03-23T04:58:12;102300.63;;;22.42;34.42
83625;BME280;73589;41.158;-73.238;2024-03-23T05:00:44;102290.81;;;22.42;34.44
83625;BME280;73589;41.158;-73.238;2024-03-23T05:03:14;102284.18;;;22.41;34.49
83625;BME280;73589;41.158;-73.238;2024-03-23T05:05:44;102282.55;;;21.86;35.30
83625;BME280;73589;41.158;-73.238;2024-03-23T05:08:16;102272.89;;;22.17;35.01
83625;BME280;73589;41.158;-73.238;2024-03-23T05:10:46;102276.74;;;22.20;34.96
83625;BME280;73589;41.158;-73.238;2024-03-23T05:13:17;102274.06;;;22.41;34.92
83625;BME280;73589;41.158;-73.238;2024-03-23T05:15:52;102271.53;;;22.45;34.81
83625;BME280;73589;41.158;-73.238;2024-03-23T05:18:18;102266.08;;;22.55;34.66
83625;BME280;73589;41.158;-73.238;2024-03-23T05:20:48;102263.06;;;22.48;34.78
83625;BME280;73589;41.158;-73.238;2024-03-23T05:23:20;102254.94;;;22.06;35.26
83625;BME280;73589;41.158;-73.238;2024-03-23T05:25:55;102258.90;;;22.00;35.45
83625;BME280;73589;41.158;-73.238;2024-03-23T05:28:20;102261.67;;;22.34;35.03
83625;BME280;73589;41.158;-73.238;2024-03-23T05:30:51;102254.04;;;22.43;34.94
83625;BME280;73589;41.158;-73.238;2024-03-23T05:33:22;102248.63;;;22.46;34.84
83625;BME280;73589;41.158;-73.238;2024-03-23T05:35:57;102248.45;;;22.48;34.84
83625;BME280;73589;41.158;-73.238;2024-03-23T05:38:23;102245.51;;;22.46;34.92
83625;BME280;73589;41.158;-73.238;2024-03-23T05:40:54;102235.39;;;22.55;34.80
83625;BME280;73589;41.158;-73.238;2024-03-23T05:43:24;102233.76;;;22.30;35.06
83625;BME280;73589;41.158;-73.238;2024-03-23T05:45:55;102224.26;;;21.94;35.81
83625;BME280;73589;41.158;-73.238;2024-03-23T05:48:27;102219.76;;;22.34;35.27
83625;BME280;73589;41.158;-73.238;2024-03-23T05:50:56;102205.96;;;22.41;35.13
83625;BME280;73589;41.158;-73.238;2024-03-23T05:53:27;102202.20;;;22.43;35.06
83625;BME280;73589;41.158;-73.238;2024-03-23T05:56:02;102198.99;;;22.42;35.08
83625;BME280;73589;41.158;-73.238;2024-03-23T05:58:27;102186.40;;;22.39;35.17
83625;BME280;73589;41.158;-73.238;2024-03-23T06:00:59;102174.90;;;21.66;36.13
83625;BME280;73589;41.158;-73.238;2024-03-23T06:03:28;102176.79;;;21.93;35.84
83625;BME280;73589;41.158;-73.238;2024-03-23T06:05:58;102175.04;;;22.14;35.55
83625;BME280;73589;41.158;-73.238;2024-03-23T06:08:28;102173.43;;;22.35;35.50
83625;BME280;73589;41.158;-73.238;2024-03-23T06:11:00;102163.38;;;22.45;35.41
83625;BME280;73589;41.158;-73.238;2024-03-23T06:13:30;102153.81;;;22.43;35.42
83625;BME280;73589;41.158;-73.238;2024-03-23T06:16:00;102147.43;;;22.44;35.54
83625;BME280;73589;41.158;-73.238;2024-03-23T06:18:32;102136.36;;;22.32;35.54
83625;BME280;73589;41.158;-73.238;2024-03-23T06:21:02;102136.17;;;22.07;35.84
83625;BME280;73589;41.158;-73.238;2024-03-23T06:23:32;102142.23;;;22.05;35.96
83625;BME280;73589;41.158;-73.238;2024-03-23T06:26:03;102144.08;;;22.30;35.78
83625;BME280;73589;41.158;-73.238;2024-03-23T06:28:34;102140.31;;;22.43;35.72
83625;BME280;73589;41.158;-73.238;2024-03-23T06:31:09;102127.20;;;22.40;35.80
83625;BME280;73589;41.158;-73.238;2024-03-23T06:33:35;102108.70;;;22.40;35.79
83625;BME280;73589;41.158;-73.238;2024-03-23T06:36:05;102094.90;;;22.29;35.92
83625;BME280;73589;41.158;-73.238;2024-03-23T06:38:35;102086.22;;;22.06;36.14
83625;BME280;73589;41.158;-73.238;2024-03-23T06:41:06;102081.58;;;22.21;36.01
83625;BME280;73589;41.158;-73.238;2024-03-23T06:43:38;102084.15;;;22.21;36.06
83625;BME280;73589;41.158;-73.238;2024-03-23T06:46:07;102081.96;;;22.37;36.07
83625;BME280;73589;41.158;-73.238;2024-03-23T06:48:38;102074.71;;;22.47;35.89
83625;BME280;73589;41.158;-73.238;2024-03-23T06:51:09;102077.14;;;22.48;35.90
83625;BME280;73589;41.158;-73.238;2024-03-23T06:53:39;102071.90;;;22.48;35.90
83625;BME280;73589;41.158;-73.238;2024-03-23T06:56:10;102059.50;;;22.05;36.42
83625;BME280;73589;41.158;-73.238;2024-03-23T06:58:41;102059.24;;;21.85;36.62
83625;BME280;73589;41.158;-73.238;2024-03-23T07:01:11;102055.46;;;22.26;35.99
83625;BME280;73589;41.158;-73.238;2024-03-23T07:03:42;102045.36;;;22.38;36.07
83625;BME280;73589;41.158;-73.238;2024-03-23T07:06:13;102039.62;;;22.42;36.11
83625;BME280;73589;41.158;-73.238;2024-03-23T07:08:43;102034.79;;;22.40;36.15
83625;BME280;73589;41.158;-73.238;2024-03-23T07:11:19;102030.66;;;22.42;36.17
83625;BME280;73589;41.158;-73.238;2024-03-23T07:13:44;102029.36;;;22.45;36.13
83625;BME280;73589;41.158;-73.238;2024-03-23T07:16:15;102017.60;;;22.25;36.09
83625;BME280;73589;41.158;-73.238;2024-03-23T07:18:46;102011.06;;;22.03;36.36
83625;BME280;73589;41.158;-73.238;2024-03-23T07:21:17;102018.46;;;22.19;36.11
83625;BME280;73589;41.158;-73.238;2024-03-23T07:23:48;102017.08;;;22.32;36.08
83625;BME280;73589;41.158;-73.238;2024-03-23T07:26:18;102010.05;;;22.45;35.83
83625;BME280;73589;41.158;-73.238;2024-03-23T07:28:48;102007.32;;;22.39;35.85
83625;BME280;73589;41.158;-73.238;2024-03-23T07:31:19;102013.06;;;22.42;35.85
83625;BME280;73589;41.158;-73.238;2024-03-23T07:33:50;101995.40;;;22.45;35.83
83625;BME280;73589;41.158;-73.238;2024-03-23T07:36:20;101989.75;;;22.15;36.17
83625;BME280;73589;41.158;-73.238;2024-03-23T07:38:51;101957.48;;;22.15;36.11
83625;BME280;73589;41.158;-73.238;2024-03-23T07:41:23;101955.57;;;22.26;36.16
83625;BME280;73589;41.158;-73.238;2024-03-23T07:43:53;101946.04;;;22.37;36.06
83625;BME280;73589;41.158;-73.238;2024-03-23T07:46:23;101949.23;;;22.40;36.04
83625;BME280;73589;41.158;-73.238;2024-03-23T07:48:55;101953.93;;;22.39;36.05
83625;BME280;73589;41.158;-73.238;2024-03-23T07:51:25;101944.81;;;22.48;35.96
83625;BME280;73589;41.158;-73.238;2024-03-23T07:53:56;101933.82;;;22.46;35.88
83625;BME280;73589;41.158;-73.238;2024-03-23T07:56:27;101930.44;;;22.14;36.33
83625;BME280;73589;41.158;-73.238;2024-03-23T07:58:56;101930.94;;;22.04;36.46
83625;BME280;73589;41.158;-73.238;2024-03-23T08:01:28;101921.88;;;22.35;36.03
83625;BME280;73589;41.158;-73.238;2024-03-23T08:03:58;101917.73;;;22.40;36.01
83625;BME280;73589;41.158;-73.238;2024-03-23T08:06:28;101907.71;;;22.39;36.13
83625;BME280;73589;41.158;-73.238;2024-03-23T08:09:00;101910.80;;;22.49;36.02
83625;BME280;73589;41.158;-73.238;2024-03-23T08:11:31;101910.38;;;22.51;36.07
83625;BME280;73589;41.158;-73.238;2024-03-23T08:14:01;101895.23;;;21.92;36.71
83625;BME280;73589;41.158;-73.238;2024-03-23T08:16:31;101897.24;;;22.03;36.52
83625;BME280;73589;41.158;-73.238;2024-03-23T08:19:02;101898.92;;;22.23;36.25
83625;BME280;73589;41.158;-73.238;2024-03-23T08:21:32;101907.49;;;22.28;36.27
83625;BME280;73589;41.158;-73.238;2024-03-23T08:24:03;101908.87;;;22.44;36.11
83625;BME280;73589;41.158;-73.238;2024-03-23T08:26:33;101901.13;;;22.47;36.05
83625;BME280;73589;41.158;-73.238;2024-03-23T08:29:04;101895.61;;;22.52;36.03
83625;BME280;73589;41.158;-73.238;2024-03-23T08:31:35;101898.09;;;22.56;36.14
83625;BME280;73589;41.158;-73.238;2024-03-23T08:34:05;101889.41;;;22.10;36.67
83625;BME280;73589;41.158;-73.238;2024-03-23T08:36:34;101884.25;;;22.15;36.58
83625;BME280;73589;41.158;-73.238;2024-03-23T08:39:06;101884.78;;;22.17;36.53
83625;BME280;73589;41.158;-73.238;2024-03-23T08:41:36;101884.46;;;22.36;36.49
83625;BME280;73589;41.158;-73.238;2024-03-23T08:44:06;101881.97;;;22.52;36.29
83625;BME280;73589;41.158;-73.238;2024-03-23T08:46:37;101876.21;;;22.47;36.30
83625;BME280;73589;41.158;-73.238;2024-03-23T08:49:07;101866.19;;;22.46;36.37
83625;BME280;73589;41.158;-73.238;2024-03-23T08:51:37;101855.46;;;22.52;36.25
83625;BME280;73589;41.158;-73.238;2024-03-23T08:54:13;101847.89;;;22.51;36.27
83625;BME280;73589;41.158;-73.238;2024-03-23T08:56:38;101831.83;;;22.29;36.36
83625;BME280;73589;41.158;-73.238;2024-03-23T08:59:08;101831.18;;;21.77;37.22
83625;BME280;73589;41.158;-73.238;2024-03-23T09:01:40;101835.06;;;22.19;36.62
83625;BME280;73589;41.158;-73.238;2024-03-23T09:04:10;101824.52;;;22.43;36.22
83625;BME280;73589;41.158;-73.238;2024-03-23T09:06:42;101816.10;;;22.42;36.36
83625;BME280;73589;41.158;-73.238;2024-03-23T09:09:11;101823.88;;;22.46;36.34
83625;BME280;73589;41.158;-73.238;2024-03-23T09:11:42;101825.17;;;22.39;36.43
83625;BME280;73589;41.158;-73.238;2024-03-23T09:14:11;101819.49;;;22.39;36.57
83625;BME280;73589;41.158;-73.238;2024-03-23T09:16:42;101818.48;;;21.87;37.14
83625;BME280;73589;41.158;-73.238;2024-03-23T09:19:13;101814.46;;;21.56;37.62
83625;BME280;73589;41.158;-73.238;2024-03-23T09:21:43;101810.94;;;22.17;36.73
83625;BME280;73589;41.158;-73.238;2024-03-23T09:24:14;101809.89;;;22.19;36.71
83625;BME280;73589;41.158;-73.238;2024-03-23T09:26:45;101807.44;;;22.43;36.53
83625;BME280;73589;41.158;-73.238;2024-03-23T09:29:15;101797.52;;;22.44;36.59
83625;BME280;73589;41.158;-73.238;2024-03-23T09:31:46;101799.19;;;22.47;36.58
83625;BME280;73589;41.158;-73.238;2024-03-23T09:34:16;101788.13;;;22.49;36.71
83625;BME280;73589;41.158;-73.238;2024-03-23T09:36:47;101784.51;;;22.51;36.72
83625;BME280;73589;41.158;-73.238;2024-03-23T09:39:17;101774.37;;;21.94;37.43
83625;BME280;73589;41.158;-73.238;2024-03-23T09:41:47;101767.17;;;22.16;36.99
83625;BME280;73589;41.158;-73.238;2024-03-23T09:44:18;101758.32;;;22.24;36.85
83625;BME280;73589;41.158;-73.238;2024-03-23T09:46:48;101755.52;;;22.38;36.75
83625;BME280;73589;41.158;-73.238;2024-03-23T09:49:19;101757.89;;;22.46;36.68
83625;BME280;73589;41.158;-73.238;2024-03-23T09:51:49;101762.70;;;22.42;36.95
83625;BME280;73589;41.158;-73.238;2024-03-23T09:54:20;101760.18;;;22.52;36.75
83625;BME280;73589;41.158;-73.238;2024-03-23T09:56:50;101753.67;;;22.46;36.93
83625;BME280;73589;41.158;-73.238;2024-03-23T09:59:21;101746.51;;;22.48;36.87
83625;BME280;73589;41.158;-73.238;2024-03-23T10:01:52;101734.87;;;21.91;37.62
83625;BME280;73589;41.158;-73.238;2024-03-23T10:06:53;101718.14;;;22.25;37.07
83625;BME280;73589;41.158;-73.238;2024-03-23T10:09:26;101717.08;;;22.38;36.91
83625;BME280;73589;41.158;-73.238;2024-03-23T10:14:29;101699.22;;;22.44;36.86
83625;BME280;73589;41.158;-73.238;2024-03-23T10:16:55;101690.79;;;22.46;36.83
83625;BME280;73589;41.158;-73.238;2024-03-23T10:19:31;101674.71;;;22.45;36.85
83625;BME280;73589;41.158;-73.238;2024-03-23T10:21:57;101673.44;;;22.12;37.25
83625;BME280;73589;41.158;-73.238;2024-03-23T10:24:27;101664.69;;;21.87;37.69
83625;BME280;73589;41.158;-73.238;2024-03-23T10:26:57;101649.59;;;22.23;37.03
83625;BME280;73589;41.158;-73.238;2024-03-23T10:29:27;101643.29;;;22.31;37.05
83625;BME280;73589;41.158;-73.238;2024-03-23T10:34:28;101643.42;;;22.46;36.85
83625;BME280;73589;41.158;-73.238;2024-03-23T10:36:59;101640.91;;;22.49;36.85
83625;BME280;73589;41.158;-73.238;2024-03-23T10:39:31;101638.33;;;22.52;36.95
83625;BME280;73589;41.158;-73.238;2024-03-23T10:42:02;101629.02;;;22.47;37.09
83625;BME280;73589;41.158;-73.238;2024-03-23T10:44:31;101623.27;;;21.74;38.09
83625;BME280;73589;41.158;-73.238;2024-03-23T10:47:02;101635.97;;;21.63;38.36
83625;BME280;73589;41.158;-73.238;2024-03-23T10:49:34;101634.09;;;22.14;37.55
83625;BME280;73589;41.158;-73.238;2024-03-23T10:52:03;101620.88;;;22.41;37.26
83625;BME280;73589;41.158;-73.238;2024-03-23T10:54:33;101620.99;;;22.43;37.26
83625;BME280;73589;41.158;-73.238;2024-03-23T10:57:17;101610.38;;;22.46;37.23
83625;BME280;73589;41.158;-73.238;2024-03-23T10:59:36;101601.84;;;22.54;37.15
83625;BME280;73589;41.158;-73.238;2024-03-23T11:02:05;101597.93;;;22.50;37.32
83625;BME280;73589;41.158;-73.238;2024-03-23T11:04:36;101592.00;;;22.52;37.37
83625;BME280;73589;41.158;-73.238;2024-03-23T11:09:41;101584.95;;;21.58;38.68
83625;BME280;73589;41.158;-73.238;2024-03-23T11:14:38;101593.20;;;22.40;37.38
83625;BME280;73589;41.158;-73.238;2024-03-23T11:17:10;101587.53;;;22.46;37.25
83625;BME280;73589;41.158;-73.238;2024-03-23T11:19:41;101587.03;;;22.44;37.36
83625;BME280;73589;41.158;-73.238;2024-03-23T11:22:10;101584.09;;;22.50;37.23
83625;BME280;73589;41.158;-73.238;2024-03-23T11:24:41;101589.29;;;22.55;37.18
83625;BME280;73589;41.158;-73.238;2024-03-23T11:27:16;101585.32;;;22.53;37.27
83625;BME280;73589;41.158;-73.238;2024-03-23T11:29:42;101582.66;;;21.84;38.19
83625;BME280;73589;41.158;-73.238;2024-03-23T11:32:12;101576.84;;;21.38;39.04
83625;BME280;73589;41.158;-73.238;2024-03-23T11:34:42;101568.92;;;22.03;37.78
83625;BME280;73589;41.158;-73.238;2024-03-23T11:37:13;101562.22;;;22.33;37.45
83625;BME280;73589;41.158;-73.238;2024-03-23T11:39:44;101560.53;;;22.48;37.17
83625;BME280;73589;41.158;-73.238;2024-03-23T11:42:15;101568.37;;;22.53;37.12
83625;BME280;73589;41.158;-73.238;2024-03-23T11:44:44;101549.37;;;22.51;37.22
83625;BME280;73589;41.158;-73.238;2024-03-23T11:47:14;101546.70;;;22.59;37.22
83625;BME280;73589;41.158;-73.238;2024-03-23T11:49:45;101551.55;;;22.56;37.35
83625;BME280;73589;41.158;-73.238;2024-03-23T11:52:16;101540.89;;;22.61;37.31
83625;BME280;73589;41.158;-73.238;2024-03-23T11:54:47;101540.15;;;22.11;38.00
83625;BME280;73589;41.158;-73.238;2024-03-23T11:57:17;101515.79;;;22.23;37.79
83625;BME280;73589;41.158;-73.238;2024-03-23T11:59:47;101526.30;;;22.49;37.58
83625;BME280;73589;41.158;-73.238;2024-03-23T12:02:18;101530.08;;;22.54;37.47
83625;BME280;73589;41.158;-73.238;2024-03-23T12:04:48;101528.10;;;22.57;37.75
83625;BME280;73589;41.158;-73.238;2024-03-23T12:07:19;101536.79;;;22.67;37.51
83625;BME280;73589;41.158;-73.238;2024-03-23T12:12:19;101528.12;;;22.64;37.68
83625;BME280;73589;41.158;-73.238;2024-03-23T12:17:22;101526.41;;;21.98;38.73
83625;BME280;73589;41.158;-73.238;2024-03-23T12:19:50;101521.08;;;22.14;38.42
83625;BME280;73589;41.158;-73.238;2024-03-23T12:22:22;101515.82;;;22.52;38.01
83625;BME280;73589;41.158;-73.238;2024-03-23T12:24:52;101518.98;;;22.62;38.09
83625;BME280;73589;41.158;-73.238;2024-03-23T12:27:23;101521.16;;;22.74;37.81
83625;BME280;73589;41.158;-73.238;2024-03-23T12:29:53;101521.28;;;22.89;37.62
83625;BME280;73589;41.158;-73.238;2024-03-23T12:32:23;101518.75;;;22.92;37.58
83625;BME280;73589;41.158;-73.238;2024-03-23T12:34:54;101517.86;;;22.89;37.60
83625;BME280;73589;41.158;-73.238;2024-03-23T12:37:24;101505.09;;;22.90;37.69
83625;BME280;73589;41.158;-73.238;2024-03-23T12:39:54;101501.96;;;22.05;38.70
83625;BME280;73589;41.158;-73.238;2024-03-23T12:42:25;101500.59;;;21.52;39.75
83625;BME280;73589;41.158;-73.238;2024-03-23T12:44:55;101499.65;;;22.48;38.17
83625;BME280;73589;41.158;-73.238;2024-03-23T12:47:25;101507.68;;;22.66;37.90
83625;BME280;73589;41.158;-73.238;2024-03-23T12:49:57;101496.53;;;22.73;37.75
83625;BME280;73589;41.158;-73.238;2024-03-23T12:52:27;101486.18;;;22.74;37.79
83625;BME280;73589;41.158;-73.238;2024-03-23T12:54:58;101473.68;;;22.74;37.87
83625;BME280;73589;41.158;-73.238;2024-03-23T12:57:28;101461.46;;;22.73;37.94
83625;BME280;73589;41.158;-73.238;2024-03-23T12:59:59;101459.48;;;22.73;38.10
83625;BME280;73589;41.158;-73.238;2024-03-23T13:02:29;101456.40;;;22.77;37.92
83625;BME280;73589;41.158;-73.238;2024-03-23T13:05:00;101450.33;;;22.77;37.87
83625;BME280;73589;41.158;-73.238;2024-03-23T13:07:31;101441.97;;;21.91;38.96
83625;BME280;73589;41.158;-73.238;2024-03-23T13:10:02;101434.58;;;21.61;39.41
83625;BME280;73589;41.158;-73.238;2024-03-23T13:12:32;101448.79;;;22.38;38.17
83625;BME280;73589;41.158;-73.238;2024-03-23T13:15:03;101441.34;;;22.49;38.18
83625;BME280;73589;41.158;-73.238;2024-03-23T13:17:34;101436.67;;;22.66;37.85
83625;BME280;73589;41.158;-73.238;2024-03-23T13:20:05;101434.87;;;22.75;37.78
83625;BME280;73589;41.158;-73.238;2024-03-23T13:22:34;101422.80;;;22.55;38.11
83625;BME280;73589;41.158;-73.238;2024-03-23T13:25:07;101413.49;;;22.50;38.20
83625;BME280;73589;41.158;-73.238;2024-03-23T13:27:36;101411.65;;;22.98;37.49
83625;BME280;73589;41.158;-73.238;2024-03-23T13:30:08;101404.95;;;23.05;37.38
83625;BME280;73589;41.158;-73.238;2024-03-23T13:32:38;101414.74;;;23.18;37.19
83625;BME280;73589;41.158;-73.238;2024-03-23T13:35:08;101404.80;;;23.17;37.23
83625;BME280;73589;41.158;-73.238;2024-03-23T13:37:39;101411.24;;;23.23;37.20
83625;BME280;73589;41.158;-73.238;2024-03-23T13:40:11;101401.89;;;23.21;37.32
83625;BME280;73589;41.158;-73.238;2024-03-23T13:42:40;101396.89;;;23.21;37.38
83625;BME280;73589;41.158;-73.238;2024-03-23T13:45:10;101387.01;;;23.06;37.83
83625;BME280;73589;41.158;-73.238;2024-03-23T13:47:42;101384.17;;;23.17;37.60
83625;BME280;73589;41.158;-73.238;2024-03-23T13:50:13;101382.77;;;23.05;37.72
83625;BME280;73589;41.158;-73.238;2024-03-23T13:52:42;101372.84;;;23.27;37.56
83625;BME280;73589;41.158;-73.238;2024-03-23T13:55:14;101347.86;;;23.35;37.29
83625;BME280;73589;41.158;-73.238;2024-03-23T13:57:44;101353.99;;;23.35;37.41